createdAt,value
2023-07-17T00:00:46.888Z,101339.66
2023-07-17T00:03:16.288Z,101340.50
2023-07-17T00:05:45.343Z,101345.09
2023-07-17T00:08:14.186Z,101323.53
2023-07-17T00:10:42.979Z,101337.03
2023-07-17T00:13:11.801Z,101345.34
2023-07-17T00:15:40.663Z,101347.47
2023-07-17T00:18:11.340Z,101353.22
2023-07-17T00:20:40.185Z,101346.16
2023-07-17T00:23:09.370Z,101343.75
2023-07-17T00:25:38.329Z,101346.19
2023-07-17T00:28:07.186Z,101353.91
2023-07-17T00:30:39.679Z,101327.81
2023-07-17T00:33:10.466Z,101354.56
2023-07-17T00:35:41.920Z,101354.38
2023-07-17T00:38:12.020Z,101357.09
2023-07-17T00:40:42.916Z,101351.84
2023-07-17T00:43:13.084Z,101363.09
2023-07-17T00:45:43.889Z,101353.75
2023-07-17T00:48:14.109Z,101359.72
2023-07-17T00:50:43.102Z,101334.34
2023-07-17T00:53:12.152Z,101357.19
2023-07-17T00:55:41.950Z,101356.88
2023-07-17T00:58:11.153Z,101366.22
2023-07-17T01:00:40.398Z,101359.47
2023-07-17T01:03:09.458Z,101351.69
2023-07-17T01:05:39.648Z,101363.78
2023-07-17T01:08:08.520Z,101362.34
2023-07-17T01:10:37.322Z,101366.13
2023-07-17T01:13:06.275Z,101366.72
2023-07-17T01:15:37.240Z,101375.56
2023-07-17T01:18:06.189Z,101372.72
2023-07-17T01:20:35.224Z,101360.53
2023-07-17T01:23:06.045Z,101362.16
2023-07-17T01:25:35.524Z,101376.44
2023-07-17T01:28:04.989Z,101374.06
2023-07-17T01:30:34.042Z,101380.28
2023-07-17T01:33:02.922Z,101378.00
2023-07-17T01:35:32.654Z,101377.16
2023-07-17T01:38:01.627Z,101383.75
2023-07-17T01:40:31.822Z,101384.50
2023-07-17T01:43:01.925Z,101386.38
2023-07-17T01:45:30.667Z,101182.69
2023-07-17T01:47:59.562Z,101368.69
2023-07-17T01:50:28.380Z,101380.41
2023-07-17T01:52:57.280Z,101381.78
2023-07-17T01:55:26.076Z,101376.53
2023-07-17T01:57:59.823Z,101365.16
2023-07-17T02:00:28.602Z,101371.91
2023-07-17T02:02:57.375Z,101369.31
2023-07-17T02:05:26.307Z,101386.69
2023-07-17T02:07:55.068Z,101372.81
2023-07-17T02:10:23.900Z,101382.06
2023-07-17T02:12:52.750Z,101379.78
2023-07-17T02:15:23.661Z,101359.13
2023-07-17T02:17:52.753Z,101372.06
2023-07-17T02:20:21.719Z,101378.00
2023-07-17T02:22:50.699Z,101340.59
2023-07-17T02:25:20.262Z,101380.13
2023-07-17T02:27:49.472Z,101377.50
2023-07-17T02:30:18.296Z,101246.59
2023-07-17T02:32:50.909Z,101383.19
2023-07-17T02:35:19.891Z,101377.38
2023-07-17T02:37:49.519Z,101371.94
2023-07-17T02:40:20.104Z,101387.56
2023-07-17T02:42:48.889Z,101387.88
2023-07-17T02:45:17.838Z,101390.50
2023-07-17T02:47:46.638Z,101385.41
2023-07-17T02:50:16.862Z,101391.81
2023-07-17T02:52:48.016Z,101399.72
2023-07-17T02:55:16.779Z,101381.88
2023-07-17T02:57:45.666Z,101391.97
2023-07-17T03:00:18.489Z,101391.41
2023-07-17T03:02:49.936Z,101399.69
2023-07-17T03:05:20.430Z,101403.56
2023-07-17T03:07:49.336Z,101401.31
2023-07-17T03:10:18.924Z,101409.56
2023-07-17T03:12:47.679Z,101401.09
2023-07-17T03:15:21.210Z,101404.09
2023-07-17T03:17:50.105Z,101411.34
2023-07-17T03:20:20.843Z,101401.84
2023-07-17T03:22:50.502Z,101263.59
2023-07-17T03:25:21.507Z,101382.00
2023-07-17T03:27:50.313Z,101411.69
2023-07-17T03:30:19.439Z,101407.50
2023-07-17T03:32:48.361Z,101401.84
2023-07-17T03:35:17.347Z,101403.66
2023-07-17T03:37:47.786Z,101407.81
2023-07-17T03:40:16.834Z,101414.00
2023-07-17T03:42:45.612Z,101401.41
2023-07-17T03:45:14.675Z,101405.72
2023-07-17T03:47:44.820Z,101396.91
2023-07-17T03:50:14.172Z,101388.16
2023-07-17T03:52:44.158Z,101400.66
2023-07-17T03:55:14.771Z,101395.22
2023-07-17T03:57:44.194Z,101284.66
2023-07-17T04:00:15.376Z,101393.66
2023-07-17T04:02:46.655Z,101407.63
2023-07-17T04:05:26.791Z,101406.03
2023-07-17T04:07:55.719Z,101407.44
2023-07-17T04:10:28.462Z,101410.44
2023-07-17T04:12:57.948Z,101415.91
2023-07-17T04:15:30.359Z,101417.53
2023-07-17T04:18:00.217Z,101417.75
2023-07-17T04:20:29.171Z,101422.72
2023-07-17T04:22:58.353Z,101430.28
2023-07-17T04:25:28.556Z,101431.09
2023-07-17T04:27:57.783Z,101439.69
2023-07-17T04:34:52.485Z,101441.31
2023-07-17T04:37:21.413Z,101450.78
2023-07-17T04:39:50.162Z,101451.50
2023-07-17T04:42:20.439Z,101453.47
2023-07-17T04:44:49.173Z,101429.91
2023-07-17T04:47:18.477Z,101444.50
2023-07-17T04:49:47.337Z,101430.88
2023-07-17T04:52:16.132Z,101449.53
2023-07-17T04:54:44.855Z,101464.66
2023-07-17T04:57:13.722Z,101460.44
2023-07-17T04:59:45.452Z,101468.13
2023-07-17T05:02:16.149Z,101468.25
2023-07-17T05:04:44.872Z,101470.69
2023-07-17T05:07:13.875Z,101470.03
2023-07-17T05:09:42.674Z,101470.03
2023-07-17T05:12:12.197Z,101453.03
2023-07-17T05:14:44.817Z,101473.31
2023-07-17T05:17:13.938Z,101474.63
2023-07-17T05:19:43.122Z,101480.16
2023-07-17T05:22:11.875Z,101480.81
2023-07-17T05:24:42.192Z,101481.94
2023-07-17T05:27:11.750Z,101485.78
2023-07-17T05:29:40.567Z,101483.63
2023-07-17T05:32:12.904Z,101494.34
2023-07-17T05:34:44.150Z,101497.69
2023-07-17T05:37:14.376Z,101502.03
2023-07-17T05:39:43.299Z,101500.78
2023-07-17T05:42:12.349Z,101499.94
2023-07-17T05:44:41.114Z,101492.25
2023-07-17T05:47:10.275Z,101504.53
2023-07-17T05:49:40.481Z,101532.34
2023-07-17T05:52:11.274Z,101508.41
2023-07-17T05:54:40.238Z,101512.91
2023-07-17T05:57:11.132Z,101511.28
2023-07-17T05:59:40.155Z,101513.91
2023-07-17T06:02:08.876Z,101510.84
2023-07-17T06:04:38.059Z,101522.22
2023-07-17T06:07:08.415Z,101519.19
2023-07-17T06:09:39.804Z,101522.13
2023-07-17T06:12:09.279Z,101533.28
2023-07-17T06:14:38.073Z,101525.75
2023-07-17T06:17:07.441Z,101530.00
2023-07-17T06:19:36.302Z,101529.50
2023-07-17T06:22:05.428Z,101542.75
2023-07-17T06:24:35.694Z,101538.09
2023-07-17T06:27:05.173Z,101535.91
2023-07-17T06:29:33.982Z,101538.22
2023-07-17T06:32:02.943Z,101527.50
2023-07-17T06:34:31.798Z,101535.81
2023-07-17T06:37:03.385Z,101533.78
2023-07-17T06:39:32.441Z,101537.91
2023-07-17T06:42:02.562Z,101526.00
2023-07-17T06:44:33.002Z,101541.81
2023-07-17T06:47:03.949Z,101515.63
2023-07-17T06:49:32.771Z,101546.69
2023-07-17T06:52:01.535Z,101550.56
2023-07-17T06:54:34.672Z,101553.69
2023-07-17T06:57:13.853Z,101552.16
2023-07-17T06:59:42.661Z,101540.53
2023-07-17T07:02:11.439Z,101549.50
2023-07-17T07:04:40.276Z,101556.94
2023-07-17T07:07:11.236Z,101557.81
2023-07-17T07:09:40.012Z,101552.16
2023-07-17T07:12:10.054Z,101563.00
2023-07-17T07:14:40.258Z,101431.19
2023-07-17T07:17:09.691Z,101557.81
2023-07-17T07:19:38.482Z,101568.19
2023-07-17T07:22:07.706Z,101567.03
2023-07-17T07:24:36.469Z,101563.09
2023-07-17T07:27:07.916Z,101568.84
2023-07-17T07:29:36.708Z,101565.09
2023-07-17T07:32:11.159Z,101580.16
2023-07-17T07:34:40.484Z,101578.94
2023-07-17T07:37:09.276Z,101575.78
2023-07-17T07:39:38.034Z,101587.06
2023-07-17T07:42:07.862Z,101586.22
2023-07-17T07:44:36.687Z,101587.13
2023-07-17T07:47:07.593Z,101590.53
2023-07-17T07:49:36.465Z,101601.59
2023-07-17T07:52:05.465Z,101598.13
2023-07-17T07:54:34.403Z,101604.22
2023-07-17T07:57:06.161Z,101603.09
2023-07-17T07:59:37.683Z,101581.28
2023-07-17T08:02:14.328Z,101608.22
2023-07-17T08:04:43.500Z,101612.72
2023-07-17T08:07:12.748Z,101604.13
2023-07-17T08:09:41.487Z,101620.09
2023-07-17T08:12:10.746Z,101628.19
2023-07-17T08:14:39.506Z,101608.28
2023-07-17T08:17:08.356Z,101617.72
2023-07-17T08:19:38.526Z,101621.00
2023-07-17T08:22:07.636Z,101617.59
2023-07-17T08:24:36.423Z,101618.44
2023-07-17T08:27:05.613Z,101613.28
2023-07-17T08:29:36.734Z,101623.16
2023-07-17T08:32:08.916Z,101619.06
2023-07-17T08:34:39.097Z,101625.06
2023-07-17T08:37:07.970Z,101617.38
2023-07-17T08:39:36.761Z,101626.03
2023-07-17T08:42:05.953Z,101614.59
2023-07-17T08:44:37.826Z,101634.41
2023-07-17T08:47:09.357Z,101633.84
2023-07-17T08:49:41.110Z,101601.03
2023-07-17T08:52:13.287Z,101632.56
2023-07-17T08:54:42.078Z,101629.41
2023-07-17T08:57:11.493Z,101634.81
2023-07-17T08:59:40.563Z,101629.59
2023-07-17T09:02:09.922Z,101624.59
2023-07-17T09:04:42.365Z,101634.09
2023-07-17T09:07:11.257Z,101629.97
2023-07-17T09:09:39.971Z,101642.38
2023-07-17T09:12:10.124Z,101630.25
2023-07-17T09:14:40.649Z,101626.22
2023-07-17T09:17:09.769Z,101651.25
2023-07-17T09:19:38.841Z,101638.84
2023-07-17T09:22:11.059Z,101645.03
2023-07-17T09:24:42.336Z,101647.22
2023-07-17T09:27:11.121Z,101642.66
2023-07-17T09:29:42.921Z,101657.31
2023-07-17T09:32:20.673Z,101653.22
2023-07-17T09:34:53.954Z,101658.50
2023-07-17T09:37:32.930Z,101667.44
2023-07-17T09:40:02.260Z,101653.47
2023-07-17T09:42:31.656Z,101536.44
2023-07-17T09:45:01.938Z,101645.22
2023-07-17T09:47:31.980Z,101654.69
2023-07-17T09:50:04.662Z,101656.03
2023-07-17T09:52:34.998Z,101654.84
2023-07-17T09:55:03.982Z,101637.88
2023-07-17T09:57:36.711Z,101652.41
2023-07-17T10:00:12.131Z,101658.41
2023-07-17T10:02:42.472Z,101644.69
2023-07-17T10:05:11.237Z,101673.69
2023-07-17T10:07:46.778Z,101678.00
2023-07-17T10:10:16.188Z,101680.66
2023-07-17T10:12:45.616Z,101684.59
2023-07-17T10:15:16.252Z,101677.97
2023-07-17T10:17:45.033Z,101681.84
2023-07-17T10:20:16.117Z,101670.56
2023-07-17T10:22:47.415Z,101671.91
2023-07-17T10:25:28.563Z,101673.22
2023-07-17T10:28:01.242Z,101692.34
2023-07-17T10:30:32.360Z,101673.94
2023-07-17T10:33:24.104Z,101681.22
2023-07-17T10:35:56.312Z,101685.16
2023-07-17T10:38:28.757Z,101686.59
2023-07-17T10:41:06.050Z,101666.41
2023-07-17T10:43:36.127Z,101689.16
2023-07-17T10:46:10.266Z,101687.53
2023-07-17T10:48:39.215Z,101689.78
2023-07-17T10:51:08.006Z,101595.97
2023-07-17T10:53:38.180Z,101680.22
2023-07-17T10:56:08.514Z,101697.16
2023-07-17T10:58:37.283Z,101683.25
2023-07-17T11:01:07.110Z,101698.59
2023-07-17T11:03:35.902Z,101689.53
2023-07-17T11:06:06.952Z,101683.47
2023-07-17T11:08:37.038Z,101701.72
2023-07-17T11:11:05.899Z,101703.50
2023-07-17T11:13:34.679Z,101706.16
2023-07-17T11:16:11.446Z,101719.09
2023-07-17T11:18:47.166Z,101716.16
2023-07-17T11:21:20.068Z,101722.38
2023-07-17T11:23:52.258Z,101718.25
2023-07-17T11:26:23.782Z,101720.78
2023-07-17T11:28:54.853Z,101723.78
2023-07-17T11:31:26.259Z,101718.97
2023-07-17T11:34:00.079Z,101712.34
2023-07-17T11:36:31.221Z,101710.38
2023-07-17T11:39:10.476Z,101709.75
2023-07-17T11:41:48.268Z,101714.72
2023-07-17T11:44:18.284Z,101711.53
2023-07-17T11:46:47.144Z,101711.34
2023-07-17T11:49:18.082Z,101704.94
2023-07-17T11:51:47.670Z,101713.81
2023-07-17T11:54:17.864Z,101706.44
2023-07-17T11:56:47.585Z,101717.00
2023-07-17T11:59:20.552Z,101704.41
2023-07-17T12:01:52.289Z,101706.72
2023-07-17T12:04:23.485Z,101697.78
2023-07-17T12:06:54.077Z,101687.09
2023-07-17T12:09:24.678Z,101694.66
2023-07-17T12:11:55.681Z,101694.94
2023-07-17T12:14:24.412Z,101698.06
2023-07-17T12:16:53.193Z,101693.66
2023-07-17T12:19:24.229Z,101693.22
2023-07-17T12:21:55.168Z,101702.94
2023-07-17T12:24:28.878Z,101697.72
2023-07-17T12:26:57.720Z,101699.63
2023-07-17T12:29:28.374Z,101701.03
2023-07-17T12:31:57.360Z,101698.66
2023-07-17T12:34:26.561Z,101709.69
2023-07-17T12:36:55.403Z,101706.56
2023-07-17T12:39:26.987Z,101693.69
2023-07-17T12:41:57.286Z,101707.00
2023-07-17T12:44:26.037Z,101677.22
2023-07-17T12:46:54.859Z,101701.75
2023-07-17T12:49:23.599Z,101706.81
2023-07-17T12:51:52.412Z,101714.06
2023-07-17T12:54:21.413Z,101710.00
2023-07-17T12:56:50.175Z,101706.91
2023-07-17T12:59:20.258Z,101700.53
2023-07-17T13:01:49.986Z,101708.16
2023-07-17T13:04:18.927Z,101707.16
2023-07-17T13:06:48.089Z,101714.22
2023-07-17T13:09:16.949Z,101704.97
2023-07-17T13:11:47.906Z,101715.19
2023-07-17T13:14:16.607Z,101719.75
2023-07-17T13:16:46.905Z,101723.41
2023-07-17T13:19:15.679Z,101711.53
2023-07-17T13:21:44.466Z,101724.97
2023-07-17T13:24:13.514Z,101719.53
2023-07-17T13:26:42.330Z,101722.22
2023-07-17T13:29:11.046Z,101720.31
2023-07-17T13:31:39.961Z,101698.75
2023-07-17T13:34:10.131Z,101720.41
2023-07-17T13:36:38.916Z,101723.16
2023-07-17T13:39:07.712Z,101731.84
2023-07-17T13:41:47.694Z,101676.81
2023-07-17T13:44:17.767Z,101725.34
2023-07-17T13:46:48.492Z,101727.44
2023-07-17T13:49:19.169Z,101731.84
2023-07-17T13:51:49.178Z,101729.09
2023-07-17T13:54:21.298Z,101630.59
2023-07-17T13:59:24.674Z,101748.13
2023-07-17T14:01:53.414Z,101749.28
2023-07-17T14:04:23.610Z,101747.59
2023-07-17T14:06:52.337Z,101742.78
2023-07-17T14:09:21.181Z,101749.63
2023-07-17T14:11:50.022Z,101756.31
2023-07-17T14:14:18.766Z,101759.63
2023-07-17T14:16:47.523Z,101757.16
2023-07-17T14:19:19.073Z,101754.00
2023-07-17T14:21:50.322Z,101757.69
2023-07-17T14:24:19.423Z,101755.41
2023-07-17T14:26:48.205Z,101756.31
2023-07-17T14:29:19.628Z,101761.97
2023-07-17T14:31:50.439Z,101767.16
2023-07-17T14:34:19.255Z,101779.31
2023-07-17T14:36:47.993Z,101771.97
2023-07-17T14:39:18.105Z,101768.00
2023-07-17T14:41:47.745Z,101751.50
2023-07-17T14:44:18.779Z,101765.22
2023-07-17T14:46:47.660Z,101750.28
2023-07-17T14:49:16.441Z,101766.44
2023-07-17T14:51:45.318Z,101735.59
2023-07-17T14:54:14.711Z,101750.91
2023-07-17T14:56:44.798Z,101759.28
2023-07-17T14:59:13.508Z,101759.94
2023-07-17T15:01:42.400Z,101761.75
2023-07-17T15:04:11.183Z,101761.25
2023-07-17T15:06:40.099Z,101752.19
2023-07-17T15:09:08.864Z,101755.72
2023-07-17T15:11:37.593Z,101756.56
2023-07-17T15:14:21.085Z,101752.59
2023-07-17T15:16:56.044Z,101739.44
2023-07-17T15:19:24.967Z,101747.53
2023-07-17T15:21:53.687Z,101743.31
2023-07-17T15:24:22.627Z,101743.81
2023-07-17T15:26:51.367Z,101741.41
2023-07-17T15:29:21.417Z,101750.53
2023-07-17T15:31:50.234Z,101758.38
2023-07-17T15:34:19.152Z,101769.38
2023-07-17T15:36:47.864Z,101773.28
2023-07-17T15:39:16.777Z,101774.31
2023-07-17T15:41:47.288Z,101763.00
2023-07-17T15:44:16.055Z,101766.22
2023-07-17T15:46:46.278Z,101762.34
2023-07-17T15:49:15.106Z,101759.84
2023-07-17T15:51:43.911Z,101760.22
2023-07-17T15:54:13.226Z,101770.47
2023-07-17T15:56:42.053Z,101766.69
2023-07-17T15:59:10.865Z,101749.78
2023-07-17T16:01:39.811Z,101772.75
2023-07-17T16:04:10.081Z,101769.31
2023-07-17T16:06:38.871Z,101752.59
2023-07-17T16:09:09.215Z,101725.94
2023-07-17T16:11:40.138Z,101753.66
2023-07-17T16:14:09.252Z,101746.31
2023-07-17T16:16:38.915Z,101751.03
2023-07-17T16:19:09.330Z,101738.50
2023-07-17T16:21:38.143Z,101744.38
2023-07-17T16:24:08.639Z,101769.56
2023-07-17T16:26:37.385Z,101759.94
2023-07-17T16:29:06.547Z,101757.53
2023-07-17T16:31:37.383Z,101756.19
2023-07-17T16:34:07.471Z,101745.59
2023-07-17T16:36:40.289Z,101619.75
2023-07-17T16:39:09.156Z,101767.22
2023-07-17T16:41:37.827Z,101754.88
2023-07-17T16:44:06.595Z,101761.09
2023-07-17T16:46:35.501Z,101767.63
2023-07-17T16:49:04.305Z,101776.88
2023-07-17T16:51:33.041Z,101782.56
2023-07-17T16:54:03.540Z,101793.78
2023-07-17T16:56:34.551Z,101792.09
2023-07-17T16:59:05.142Z,101791.81
2023-07-17T17:01:34.847Z,101811.41
2023-07-17T17:04:04.640Z,101802.63
2023-07-17T17:06:33.621Z,101806.59
2023-07-17T17:09:16.383Z,101822.59
2023-07-17T17:11:46.268Z,101801.31
2023-07-17T17:14:17.166Z,101822.19
2023-07-17T17:16:48.369Z,101801.47
2023-07-17T17:19:17.980Z,101819.25
2023-07-17T17:21:46.720Z,101828.00
2023-07-17T17:24:16.819Z,101826.56
2023-07-17T17:26:45.684Z,101802.03
2023-07-17T17:29:14.465Z,101822.22
2023-07-17T17:31:43.228Z,101832.53
2023-07-17T17:34:12.407Z,101830.16
2023-07-17T17:36:41.118Z,101840.88
2023-07-17T17:39:11.136Z,101847.53
2023-07-17T17:41:41.218Z,101842.63
2023-07-17T17:44:12.174Z,101853.81
2023-07-17T17:46:41.020Z,101839.53
2023-07-17T17:49:09.838Z,101853.13
2023-07-17T17:51:38.614Z,101855.47
2023-07-17T17:54:07.952Z,101727.56
2023-07-17T17:56:37.480Z,101846.63
2023-07-17T17:59:08.097Z,101837.34
2023-07-17T18:01:36.988Z,101844.53
2023-07-17T18:04:06.021Z,101848.22
2023-07-17T18:06:35.003Z,101842.47
2023-07-17T18:09:04.534Z,101843.44
2023-07-17T18:11:37.221Z,101837.94
2023-07-17T18:14:11.638Z,101851.06
2023-07-17T18:16:40.820Z,101849.47
2023-07-17T18:19:10.128Z,101851.84
2023-07-17T18:21:40.205Z,101843.63
2023-07-17T18:24:09.089Z,101847.63
2023-07-17T18:26:40.065Z,101829.47
2023-07-17T18:29:10.175Z,101850.53
2023-07-17T18:31:39.567Z,101859.19
2023-07-17T18:34:08.442Z,101865.28
2023-07-17T18:36:40.204Z,101865.91
2023-07-17T18:39:08.989Z,101867.16
2023-07-17T18:41:37.692Z,101867.50
2023-07-17T18:44:07.497Z,101870.97
2023-07-17T18:46:37.914Z,101876.47
2023-07-17T18:49:06.775Z,101886.19
2023-07-17T18:51:38.292Z,101884.69
2023-07-17T18:54:07.961Z,101888.84
2023-07-17T18:56:38.261Z,101891.00
2023-07-17T18:59:15.679Z,101887.41
2023-07-17T19:01:46.191Z,101905.75
2023-07-17T19:04:15.028Z,101890.34
2023-07-17T19:06:43.844Z,101892.09
2023-07-17T19:09:13.476Z,101887.44
2023-07-17T19:11:44.587Z,101894.75
2023-07-17T19:14:13.760Z,101900.81
2023-07-17T19:16:42.706Z,101905.91
2023-07-17T19:19:12.914Z,101895.53
2023-07-17T19:21:45.891Z,101915.19
2023-07-17T19:24:14.818Z,101915.53
2023-07-17T19:26:43.666Z,101917.63
2023-07-17T19:29:12.409Z,101920.28
2023-07-17T19:31:41.211Z,101922.81
2023-07-17T19:34:10.434Z,101924.25
2023-07-17T19:36:40.786Z,101919.16
2023-07-17T19:39:09.628Z,101916.34
2023-07-17T19:41:38.380Z,101912.00
2023-07-17T19:44:07.397Z,101932.53
2023-07-17T19:46:36.480Z,101933.28
2023-07-17T19:49:06.513Z,101922.38
2023-07-17T19:51:35.804Z,101938.38
2023-07-17T19:54:06.059Z,101941.22
2023-07-17T19:56:37.354Z,101939.50
2023-07-17T19:59:06.012Z,101940.47
2023-07-17T20:01:35.013Z,101953.06
2023-07-17T20:04:03.892Z,101952.41
2023-07-17T20:06:32.997Z,101950.53
2023-07-17T20:09:01.806Z,101954.97
2023-07-17T20:11:34.586Z,101948.38
2023-07-17T20:14:03.379Z,101964.38
2023-07-17T20:16:32.848Z,101937.25
2023-07-17T20:19:02.106Z,101957.06
2023-07-17T20:21:30.906Z,101933.72
2023-07-17T20:23:59.667Z,101959.78
2023-07-17T20:26:28.483Z,101965.34
2023-07-17T20:28:58.668Z,101958.56
2023-07-17T20:31:27.533Z,101955.25
2023-07-17T20:33:56.384Z,101968.31
2023-07-17T20:36:27.633Z,101959.41
2023-07-17T20:38:56.376Z,101959.69
2023-07-17T20:41:25.093Z,101962.19
2023-07-17T20:43:53.844Z,101961.38
2023-07-17T20:46:24.033Z,101956.84
2023-07-17T20:48:52.795Z,101960.09
2023-07-17T20:51:23.922Z,101962.59
2023-07-17T20:53:53.364Z,101947.25
2023-07-17T20:56:22.115Z,101948.97
2023-07-17T20:58:52.610Z,101953.25
2023-07-17T21:01:26.865Z,101925.34
2023-07-17T21:03:59.079Z,101956.41
2023-07-17T21:06:29.039Z,101959.22
2023-07-17T21:08:58.721Z,101954.31
2023-07-17T21:11:28.073Z,101961.66
2023-07-17T21:13:58.267Z,101959.75
2023-07-17T21:16:28.445Z,101952.03
2023-07-17T21:18:57.381Z,101949.31
2023-07-17T21:21:26.307Z,101957.91
2023-07-17T21:23:55.188Z,101953.28
2023-07-17T21:26:24.007Z,101941.31
2023-07-17T21:28:59.264Z,101955.25
2023-07-17T21:31:29.373Z,101952.59
2023-07-17T21:33:58.125Z,101952.31
2023-07-17T21:36:26.971Z,101923.34
2023-07-17T21:38:56.192Z,101841.06
2023-07-17T21:41:25.491Z,101961.66
2023-07-17T21:43:54.238Z,101963.25
2023-07-17T21:46:23.026Z,101964.06
2023-07-17T21:48:55.573Z,101972.41
2023-07-17T21:51:24.543Z,101972.56
2023-07-17T21:53:53.368Z,101980.25
2023-07-17T21:56:22.102Z,101986.38
2023-07-17T21:58:53.188Z,101983.53
2023-07-17T22:01:22.205Z,101976.19
2023-07-17T22:03:51.308Z,101988.97
2023-07-17T22:06:22.363Z,101982.00
2023-07-17T22:08:51.360Z,101987.38
2023-07-17T22:11:20.557Z,101988.06
2023-07-17T22:13:49.713Z,101984.38
2023-07-17T22:16:18.639Z,101990.56
2023-07-17T22:18:47.389Z,101949.81
2023-07-17T22:21:19.874Z,101993.28
2023-07-17T22:23:52.531Z,101998.47
2023-07-17T22:26:21.207Z,101991.84
2023-07-17T22:28:49.980Z,101987.81
2023-07-17T22:31:19.021Z,101994.41
2023-07-17T22:33:47.948Z,101991.78
2023-07-17T22:36:16.757Z,101990.94
2023-07-17T22:38:45.597Z,101960.56
2023-07-17T22:41:16.086Z,101970.94
2023-07-17T22:43:45.022Z,102000.69
2023-07-17T22:46:13.845Z,101993.38
2023-07-17T22:48:42.666Z,101995.41
2023-07-17T22:51:11.405Z,101968.91
2023-07-17T22:53:41.291Z,101980.63
2023-07-17T22:56:10.415Z,101989.41
2023-07-17T22:58:40.617Z,101993.16
2023-07-17T23:01:09.392Z,101988.97
2023-07-17T23:03:38.234Z,101991.84
2023-07-17T23:06:07.102Z,101986.72
2023-07-17T23:08:35.878Z,101990.94
2023-07-17T23:11:04.615Z,101983.16
2023-07-17T23:13:33.429Z,101989.69
2023-07-17T23:16:03.691Z,101987.94
2023-07-17T23:18:32.459Z,101984.44
2023-07-17T23:21:01.298Z,101984.63
2023-07-17T23:23:30.083Z,101974.91
2023-07-17T23:25:58.844Z,101983.00
2023-07-17T23:28:27.614Z,101973.25
2023-07-17T23:30:58.751Z,101979.50
2023-07-17T23:33:29.025Z,101978.09
2023-07-17T23:35:59.305Z,101973.31
2023-07-17T23:38:34.648Z,101979.59
2023-07-17T23:41:03.573Z,101847.03
2023-07-17T23:43:32.522Z,101971.66
2023-07-17T23:46:01.670Z,101973.41
2023-07-17T23:48:32.099Z,101966.63
2023-07-17T23:51:02.153Z,101949.66
2023-07-17T23:53:30.966Z,101961.78
2023-07-17T23:56:03.544Z,101960.50
2023-07-17T23:58:32.405Z,101959.16
